sensor_id;sensor_type;location;lat;lon;timestamp;pressure;altitude;pressure_sealevel;temperature;humidity
72892;BME280;61032;50.782;6.818;2023-04-26T00:00:17;100816.34;;;6.49;65.65
72892;BME280;61032;50.782;6.818;2023-04-26T00:01:18;100818.38;;;6.43;65.72
72892;BME280;61032;50.782;6.818;2023-04-26T00:02:18;100818.38;;;6.43;65.76
72892;BME280;61032;50.782;6.818;2023-04-26T00:03:20;100812.91;;;6.43;66.45
72892;BME280;61032;50.782;6.818;2023-04-26T00:04:20;100811.19;;;6.47;65.34
72892;BME280;61032;50.782;6.818;2023-04-26T00:05:21;100817.09;;;6.54;65.75
72892;BME280;61032;50.782;6.818;2023-04-26T00:06:21;100814.38;;;6.54;65.37
72892;BME280;61032;50.782;6.818;2023-04-26T00:07:22;100824.56;;;6.49;65.56
72892;BME280;61032;50.782;6.818;2023-04-26T00:08:23;100815.69;;;6.38;66.10
72892;BME280;61032;50.782;6.818;2023-04-26T00:09:24;100814.91;;;6.38;66.43
72892;BME280;61032;50.782;6.818;2023-04-26T00:10:24;100812.69;;;6.40;66.82
72892;BME280;61032;50.782;6.818;2023-04-26T00:11:25;100818.44;;;6.38;66.48
72892;BME280;61032;50.782;6.818;2023-04-26T00:12:25;100817.69;;;6.33;66.84
72892;BME280;61032;50.782;6.818;2023-04-26T00:13:26;100816.94;;;6.27;67.08
72892;BME280;61032;50.782;6.818;2023-04-26T00:14:26;100815.59;;;6.25;67.50
72892;BME280;61032;50.782;6.818;2023-04-26T00:15:26;100814.78;;;6.24;67.22
72892;BME280;61032;50.782;6.818;2023-04-26T00:16:27;100813.06;;;6.09;67.46
72892;BME280;61032;50.782;6.818;2023-04-26T00:17:27;100815.44;;;5.97;68.58
72892;BME280;61032;50.782;6.818;2023-04-26T00:18:27;100825.06;;;5.90;69.22
72892;BME280;61032;50.782;6.818;2023-04-26T00:19:28;100826.69;;;5.91;68.85
72892;BME280;61032;50.782;6.818;2023-04-26T00:20:28;100821.22;;;5.91;69.09
72892;BME280;61032;50.782;6.818;2023-04-26T00:21:29;100822.50;;;5.98;69.05
72892;BME280;61032;50.782;6.818;2023-04-26T00:22:29;100822.75;;;6.02;67.81
72892;BME280;61032;50.782;6.818;2023-04-26T00:23:30;100826.19;;;6.07;67.57
72892;BME280;61032;50.782;6.818;2023-04-26T00:24:31;100819.59;;;6.13;67.55
72892;BME280;61032;50.782;6.818;2023-04-26T00:25:31;100821.44;;;6.18;67.56
72892;BME280;61032;50.782;6.818;2023-04-26T00:26:32;100821.06;;;6.25;67.08
72892;BME280;61032;50.782;6.818;2023-04-26T00:27:33;100819.94;;;6.26;67.15
72892;BME280;61032;50.782;6.818;2023-04-26T00:28:33;100817.22;;;6.26;67.15
72892;BME280;61032;50.782;6.818;2023-04-26T00:29:34;100820.78;;;6.26;66.48
72892;BME280;61032;50.782;6.818;2023-04-26T00:30:34;100808.91;;;6.17;66.42
72892;BME280;61032;50.782;6.818;2023-04-26T00:31:36;100815.97;;;6.18;66.94
72892;BME280;61032;50.782;6.818;2023-04-26T00:32:37;100813.63;;;6.30;66.48
72892;BME280;61032;50.782;6.818;2023-04-26T00:33:37;100810.84;;;6.35;66.15
72892;BME280;61032;50.782;6.818;2023-04-26T00:34:37;100802.13;;;6.33;65.62
72892;BME280;61032;50.782;6.818;2023-04-26T00:35:37;100804.09;;;6.28;65.79
72892;BME280;61032;50.782;6.818;2023-04-26T00:36:38;100805.41;;;6.11;66.80
72892;BME280;61032;50.782;6.818;2023-04-26T00:37:38;100805.19;;;6.08;67.34
72892;BME280;61032;50.782;6.818;2023-04-26T00:38:38;100811.31;;;6.00;67.31
72892;BME280;61032;50.782;6.818;2023-04-26T00:39:39;100806.78;;;5.90;67.81
72892;BME280;61032;50.782;6.818;2023-04-26T00:40:39;100805.66;;;5.91;68.11
72892;BME280;61032;50.782;6.818;2023-04-26T00:41:39;100808.88;;;5.98;68.33
72892;BME280;61032;50.782;6.818;2023-04-26T00:42:40;100813.81;;;5.96;67.29
72892;BME280;61032;50.782;6.818;2023-04-26T00:43:40;100805.16;;;5.84;68.09
72892;BME280;61032;50.782;6.818;2023-04-26T00:44:41;100807.44;;;5.77;68.51
72892;BME280;61032;50.782;6.818;2023-04-26T00:45:41;100805.31;;;5.74;69.06
72892;BME280;61032;50.782;6.818;2023-04-26T00:46:42;100805.25;;;5.79;68.37
72892;BME280;61032;50.782;6.818;2023-04-26T00:47:42;100806.59;;;5.81;68.00
72892;BME280;61032;50.782;6.818;2023-04-26T00:48:43;100800.53;;;5.84;68.54
72892;BME280;61032;50.782;6.818;2023-04-26T00:49:43;100802.97;;;5.86;68.18
72892;BME280;61032;50.782;6.818;2023-04-26T00:50:44;100801.25;;;5.95;67.64
72892;BME280;61032;50.782;6.818;2023-04-26T00:51:45;100803.53;;;5.83;67.61
72892;BME280;61032;50.782;6.818;2023-04-26T00:52:46;100805.78;;;5.81;68.04
72892;BME280;61032;50.782;6.818;2023-04-26T00:53:47;100802.72;;;5.82;68.14
72892;BME280;61032;50.782;6.818;2023-04-26T00:54:48;100798.09;;;5.83;67.50
72892;BME280;61032;50.782;6.818;2023-04-26T00:55:48;100801.72;;;5.78;67.92
72892;BME280;61032;50.782;6.818;2023-04-26T00:56:50;100805.31;;;5.74;68.08
72892;BME280;61032;50.782;6.818;2023-04-26T00:57:52;100804.97;;;5.80;68.27
72892;BME280;61032;50.782;6.818;2023-04-26T00:58:52;100804.06;;;5.85;67.04
72892;BME280;61032;50.782;6.818;2023-04-26T00:59:53;100808.50;;;5.81;67.01
72892;BME280;61032;50.782;6.818;2023-04-26T01:00:53;100801.47;;;5.75;67.70
72892;BME280;61032;50.782;6.818;2023-04-26T01:01:54;100808.03;;;5.74;67.61
72892;BME280;61032;50.782;6.818;2023-04-26T01:02:55;100805.06;;;5.70;67.30
72892;BME280;61032;50.782;6.818;2023-04-26T01:03:55;100803.44;;;5.69;67.21
72892;BME280;61032;50.782;6.818;2023-04-26T01:04:56;100805.63;;;5.67;67.27
72892;BME280;61032;50.782;6.818;2023-04-26T01:05:56;100796.94;;;5.65;67.97
72892;BME280;61032;50.782;6.818;2023-04-26T01:06:59;100798.13;;;5.59;68.33
72892;BME280;61032;50.782;6.818;2023-04-26T01:07:59;100796.13;;;5.65;67.72
72892;BME280;61032;50.782;6.818;2023-04-26T01:09:02;100797.16;;;5.69;67.47
72892;BME280;61032;50.782;6.818;2023-04-26T01:10:11;100805.69;;;5.62;67.48
72892;BME280;61032;50.782;6.818;2023-04-26T01:11:12;100800.31;;;5.57;68.22
72892;BME280;61032;50.782;6.818;2023-04-26T01:12:13;100802.00;;;5.53;67.41
72892;BME280;61032;50.782;6.818;2023-04-26T01:13:14;100800.66;;;5.50;67.75
72892;BME280;61032;50.782;6.818;2023-04-26T01:14:15;100802.50;;;5.55;67.57
72892;BME280;61032;50.782;6.818;2023-04-26T01:15:15;100803.84;;;5.58;67.96
72892;BME280;61032;50.782;6.818;2023-04-26T01:16:18;100793.53;;;5.55;67.81
72892;BME280;61032;50.782;6.818;2023-04-26T01:17:19;100800.13;;;5.48;67.36
72892;BME280;61032;50.782;6.818;2023-04-26T01:18:19;100795.28;;;5.40;67.77
72892;BME280;61032;50.782;6.818;2023-04-26T01:19:20;100797.53;;;5.38;68.57
72892;BME280;61032;50.782;6.818;2023-04-26T01:20:21;100800.03;;;5.30;68.50
72892;BME280;61032;50.782;6.818;2023-04-26T01:21:22;100804.41;;;5.31;68.53
72892;BME280;61032;50.782;6.818;2023-04-26T01:22:23;100801.34;;;5.37;68.35
72892;BME280;61032;50.782;6.818;2023-04-26T01:23:23;100810.25;;;5.43;68.94
72892;BME280;61032;50.782;6.818;2023-04-26T01:24:24;100803.41;;;5.45;68.82
72892;BME280;61032;50.782;6.818;2023-04-26T01:25:24;100797.41;;;5.48;68.76
72892;BME280;61032;50.782;6.818;2023-04-26T01:26:25;100810.50;;;5.46;68.03
72892;BME280;61032;50.782;6.818;2023-04-26T01:27:26;100811.03;;;5.48;67.61
72892;BME280;61032;50.782;6.818;2023-04-26T01:28:26;100803.66;;;5.49;67.40
72892;BME280;61032;50.782;6.818;2023-04-26T01:29:27;100799.78;;;5.55;67.40
72892;BME280;61032;50.782;6.818;2023-04-26T01:30:27;100806.59;;;5.58;67.27
72892;BME280;61032;50.782;6.818;2023-04-26T01:31:28;100807.97;;;5.55;67.56
72892;BME280;61032;50.782;6.818;2023-04-26T01:32:28;100809.06;;;5.54;68.00
72892;BME280;61032;50.782;6.818;2023-04-26T01:33:28;100810.16;;;5.53;66.96
72892;BME280;61032;50.782;6.818;2023-04-26T01:34:29;100811.56;;;5.50;67.17
72892;BME280;61032;50.782;6.818;2023-04-26T01:35:29;100812.09;;;5.52;66.74
72892;BME280;61032;50.782;6.818;2023-04-26T01:36:30;100812.13;;;5.47;66.56
72892;BME280;61032;50.782;6.818;2023-04-26T01:37:31;100810.22;;;5.48;67.88
72892;BME280;61032;50.782;6.818;2023-04-26T01:38:31;100815.38;;;5.49;67.77
72892;BME280;61032;50.782;6.818;2023-04-26T01:39:32;100809.13;;;5.49;67.34
72892;BME280;61032;50.782;6.818;2023-04-26T01:40:33;100808.31;;;5.48;67.30
72892;BME280;61032;50.782;6.818;2023-04-26T01:41:33;100808.19;;;5.35;67.34
72892;BME280;61032;50.782;6.818;2023-04-26T01:42:34;100815.06;;;5.27;68.17
72892;BME280;61032;50.782;6.818;2023-04-26T01:43:34;100816.16;;;5.26;68.02
72892;BME280;61032;50.782;6.818;2023-04-26T01:44:35;100805.25;;;5.26;68.58
72892;BME280;61032;50.782;6.818;2023-04-26T01:45:35;100804.09;;;5.32;68.43
72892;BME280;61032;50.782;6.818;2023-04-26T01:46:35;100809.00;;;5.35;67.78
72892;BME280;61032;50.782;6.818;2023-04-26T01:47:36;100814.69;;;5.39;67.90
72892;BME280;61032;50.782;6.818;2023-04-26T01:48:36;100804.88;;;5.38;67.37
72892;BME280;61032;50.782;6.818;2023-04-26T01:49:37;100810.03;;;5.39;67.25
72892;BME280;61032;50.782;6.818;2023-04-26T01:50:37;100807.06;;;5.36;68.24
72892;BME280;61032;50.782;6.818;2023-04-26T01:51:37;100808.41;;;5.38;68.17
72892;BME280;61032;50.782;6.818;2023-04-26T01:52:38;100805.41;;;5.40;67.59
72892;BME280;61032;50.782;6.818;2023-04-26T01:53:38;100802.19;;;5.33;67.85
72892;BME280;61032;50.782;6.818;2023-04-26T01:54:38;100799.22;;;5.29;67.68
72892;BME280;61032;50.782;6.818;2023-04-26T01:55:38;100804.69;;;5.29;68.42
72892;BME280;61032;50.782;6.818;2023-04-26T01:56:39;100803.97;;;5.18;68.60
72892;BME280;61032;50.782;6.818;2023-04-26T01:57:39;100794.75;;;5.14;68.09
72892;BME280;61032;50.782;6.818;2023-04-26T01:58:39;100805.94;;;5.13;68.80
72892;BME280;61032;50.782;6.818;2023-04-26T01:59:40;100805.94;;;5.13;68.79
72892;BME280;61032;50.782;6.818;2023-04-26T02:00:41;100805.94;;;5.13;68.75
72892;BME280;61032;50.782;6.818;2023-04-26T02:01:41;100800.72;;;5.16;68.72
72892;BME280;61032;50.782;6.818;2023-04-26T02:02:42;100810.47;;;5.23;68.35
72892;BME280;61032;50.782;6.818;2023-04-26T02:03:42;100806.38;;;5.20;68.17
72892;BME280;61032;50.782;6.818;2023-04-26T02:04:43;100808.66;;;5.13;67.48
72892;BME280;61032;50.782;6.818;2023-04-26T02:05:43;100813.63;;;5.06;67.94
72892;BME280;61032;50.782;6.818;2023-04-26T02:06:43;100804.31;;;5.12;68.43
72892;BME280;61032;50.782;6.818;2023-04-26T02:07:44;100804.16;;;4.98;67.90
72892;BME280;61032;50.782;6.818;2023-04-26T02:08:44;100809.97;;;4.87;68.92
72892;BME280;61032;50.782;6.818;2023-04-26T02:09:45;100803.69;;;4.86;69.41
72892;BME280;61032;50.782;6.818;2023-04-26T02:10:48;100811.00;;;4.96;69.24
72892;BME280;61032;50.782;6.818;2023-04-26T02:11:48;100800.84;;;5.01;69.00
72892;BME280;61032;50.782;6.818;2023-04-26T02:12:48;100807.69;;;4.99;68.95
72892;BME280;61032;50.782;6.818;2023-04-26T02:13:48;100808.31;;;4.91;69.14
72892;BME280;61032;50.782;6.818;2023-04-26T02:14:49;100805.63;;;4.80;69.14
72892;BME280;61032;50.782;6.818;2023-04-26T02:15:49;100804.63;;;4.71;70.06
72892;BME280;61032;50.782;6.818;2023-04-26T02:16:50;100804.00;;;4.79;68.81
72892;BME280;61032;50.782;6.818;2023-04-26T02:17:50;100803.97;;;4.84;68.64
72892;BME280;61032;50.782;6.818;2023-04-26T02:18:53;100804.25;;;4.83;68.49
72892;BME280;61032;50.782;6.818;2023-04-26T02:19:53;100802.91;;;4.80;69.32
72892;BME280;61032;50.782;6.818;2023-04-26T02:20:54;100806.16;;;4.82;69.16
72892;BME280;61032;50.782;6.818;2023-04-26T02:21:56;100803.50;;;4.77;69.10
72892;BME280;61032;50.782;6.818;2023-04-26T02:22:57;100813.06;;;4.75;70.01
72892;BME280;61032;50.782;6.818;2023-04-26T02:23:57;100796.44;;;4.76;70.11
72892;BME280;61032;50.782;6.818;2023-04-26T02:24:57;100803.72;;;4.81;69.01
72892;BME280;61032;50.782;6.818;2023-04-26T02:25:57;100805.03;;;4.89;68.57
72892;BME280;61032;50.782;6.818;2023-04-26T02:26:58;100808.31;;;4.91;68.26
72892;BME280;61032;50.782;6.818;2023-04-26T02:28:03;100806.06;;;4.98;68.43
72892;BME280;61032;50.782;6.818;2023-04-26T02:29:03;100806.06;;;4.98;68.66
72892;BME280;61032;50.782;6.818;2023-04-26T02:30:04;100802.53;;;4.97;68.45
72892;BME280;61032;50.782;6.818;2023-04-26T02:31:05;100807.72;;;4.94;68.18
72892;BME280;61032;50.782;6.818;2023-04-26T02:32:06;100806.09;;;4.93;68.54
72892;BME280;61032;50.782;6.818;2023-04-26T02:33:07;100809.94;;;4.92;68.74
72892;BME280;61032;50.782;6.818;2023-04-26T02:34:08;100802.28;;;4.94;68.88
72892;BME280;61032;50.782;6.818;2023-04-26T02:35:08;100806.09;;;4.93;68.69
72892;BME280;61032;50.782;6.818;2023-04-26T02:36:10;100803.34;;;4.98;68.53
72892;BME280;61032;50.782;6.818;2023-04-26T02:37:10;100801.66;;;5.02;68.29
72892;BME280;61032;50.782;6.818;2023-04-26T02:38:10;100803.53;;;5.06;68.47
72892;BME280;61032;50.782;6.818;2023-04-26T02:39:11;100808.19;;;5.01;68.45
72892;BME280;61032;50.782;6.818;2023-04-26T02:40:11;100808.78;;;4.98;68.55
72892;BME280;61032;50.782;6.818;2023-04-26T02:41:12;100806.56;;;5.00;68.36
72892;BME280;61032;50.782;6.818;2023-04-26T02:42:12;100800.28;;;5.04;68.64
72892;BME280;61032;50.782;6.818;2023-04-26T02:43:12;100806.53;;;5.05;67.90
72892;BME280;61032;50.782;6.818;2023-04-26T02:44:13;100801.13;;;5.00;68.40
72892;BME280;61032;50.782;6.818;2023-04-26T02:45:13;100801.19;;;4.95;68.76
72892;BME280;61032;50.782;6.818;2023-04-26T02:46:14;100805.81;;;4.94;68.30
72892;BME280;61032;50.782;6.818;2023-04-26T02:47:14;100804.19;;;4.93;68.67
72892;BME280;61032;50.782;6.818;2023-04-26T02:48:14;100806.09;;;4.93;68.43
72892;BME280;61032;50.782;6.818;2023-04-26T02:49:15;100801.22;;;4.90;68.05
72892;BME280;61032;50.782;6.818;2023-04-26T02:50:15;100799.97;;;4.77;69.25
72892;BME280;61032;50.782;6.818;2023-04-26T02:51:16;100798.38;;;4.71;69.05
72892;BME280;61032;50.782;6.818;2023-04-26T02:52:16;100801.94;;;4.66;69.30
72892;BME280;61032;50.782;6.818;2023-04-26T02:53:16;100803.00;;;4.70;69.59
72892;BME280;61032;50.782;6.818;2023-04-26T02:54:17;100803.53;;;4.72;69.40
72892;BME280;61032;50.782;6.818;2023-04-26T02:55:17;100805.16;;;4.73;68.98
72892;BME280;61032;50.782;6.818;2023-04-26T02:56:18;100807.63;;;4.70;69.82
72892;BME280;61032;50.782;6.818;2023-04-26T02:57:18;100806.56;;;4.66;69.65
72892;BME280;61032;50.782;6.818;2023-04-26T02:58:18;100793.50;;;4.68;69.62
72892;BME280;61032;50.782;6.818;2023-04-26T02:59:19;100796.53;;;4.61;69.36
72892;BME280;61032;50.782;6.818;2023-04-26T03:00:19;100796.53;;;4.61;69.35
72892;BME280;61032;50.782;6.818;2023-04-26T03:01:19;100791.69;;;4.53;69.80
72892;BME280;61032;50.782;6.818;2023-04-26T03:02:20;100802.09;;;4.46;69.87
72892;BME280;61032;50.782;6.818;2023-04-26T03:03:21;100790.88;;;4.53;69.91
72892;BME280;61032;50.782;6.818;2023-04-26T03:04:21;100796.00;;;4.59;69.09
72892;BME280;61032;50.782;6.818;2023-04-26T03:05:22;100790.00;;;4.62;69.59
72892;BME280;61032;50.782;6.818;2023-04-26T03:06:22;100788.88;;;4.63;69.22
72892;BME280;61032;50.782;6.818;2023-04-26T03:07:22;100790.00;;;4.62;69.35
72892;BME280;61032;50.782;6.818;2023-04-26T03:08:23;100790.53;;;4.59;69.21
72892;BME280;61032;50.782;6.818;2023-04-26T03:09:23;100785.63;;;4.61;69.13
72892;BME280;61032;50.782;6.818;2023-04-26T03:10:23;100784.09;;;4.50;70.45
72892;BME280;61032;50.782;6.818;2023-04-26T03:11:24;100785.19;;;4.49;69.87
72892;BME280;61032;50.782;6.818;2023-04-26T03:12:25;100789.56;;;4.45;69.88
72892;BME280;61032;50.782;6.818;2023-04-26T03:13:25;100786.28;;;4.48;70.13
72892;BME280;61032;50.782;6.818;2023-04-26T03:14:26;100792.00;;;4.46;69.37
72892;BME280;61032;50.782;6.818;2023-04-26T03:15:26;100778.13;;;4.48;69.38
72892;BME280;61032;50.782;6.818;2023-04-26T03:16:27;100785.19;;;4.49;69.56
72892;BME280;61032;50.782;6.818;2023-04-26T03:17:27;100791.72;;;4.48;69.66
72892;BME280;61032;50.782;6.818;2023-04-26T03:18:27;100783.31;;;4.44;69.51
72892;BME280;61032;50.782;6.818;2023-04-26T03:19:28;100784.47;;;4.33;70.11
72892;BME280;61032;50.782;6.818;2023-04-26T03:20:28;100789.13;;;4.28;71.22
72892;BME280;61032;50.782;6.818;2023-04-26T03:21:28;100795.66;;;4.32;70.61
72892;BME280;61032;50.782;6.818;2023-04-26T03:22:28;100791.78;;;4.38;70.78
72892;BME280;61032;50.782;6.818;2023-04-26T03:23:29;100790.69;;;4.39;70.41
72892;BME280;61032;50.782;6.818;2023-04-26T03:24:30;100783.03;;;4.46;69.87
72892;BME280;61032;50.782;6.818;2023-04-26T03:25:32;100780.31;;;4.46;70.29
72892;BME280;61032;50.782;6.818;2023-04-26T03:26:32;100781.72;;;4.38;70.15
72892;BME280;61032;50.782;6.818;2023-04-26T03:27:33;100778.16;;;4.38;70.42
72892;BME280;61032;50.782;6.818;2023-04-26T03:28:33;100780.91;;;4.38;70.56
72892;BME280;61032;50.782;6.818;2023-04-26T03:29:33;100784.16;;;4.40;70.35
72892;BME280;61032;50.782;6.818;2023-04-26T03:30:33;100772.97;;;4.41;70.12
72892;BME280;61032;50.782;6.818;2023-04-26T03:31:34;100772.72;;;4.38;69.73
72892;BME280;61032;50.782;6.818;2023-04-26T03:32:34;100777.16;;;4.29;70.60
72892;BME280;61032;50.782;6.818;2023-04-26T03:33:34;100773.13;;;4.16;70.97
72892;BME280;61032;50.782;6.818;2023-04-26T03:34:35;100773.44;;;4.14;71.83
72892;BME280;61032;50.782;6.818;2023-04-26T03:35:35;100775.06;;;4.16;70.70
72892;BME280;61032;50.782;6.818;2023-04-26T03:36:35;100771.75;;;4.24;71.06
72892;BME280;61032;50.782;6.818;2023-04-26T03:37:36;100771.16;;;4.32;70.54
72892;BME280;61032;50.782;6.818;2023-04-26T03:38:38;100778.16;;;4.38;70.24
72892;BME280;61032;50.782;6.818;2023-04-26T03:39:39;100770.25;;;4.41;70.37
72892;BME280;61032;50.782;6.818;2023-04-26T03:40:39;100775.41;;;4.43;69.79
72892;BME280;61032;50.782;6.818;2023-04-26T03:41:39;100777.34;;;4.37;69.79
72892;BME280;61032;50.782;6.818;2023-04-26T03:42:40;100774.47;;;4.24;70.32
72892;BME280;61032;50.782;6.818;2023-04-26T03:43:40;100779.91;;;4.24;69.94
72892;BME280;61032;50.782;6.818;2023-04-26T03:44:40;100775.56;;;4.23;70.11
72892;BME280;61032;50.782;6.818;2023-04-26T03:45:41;100776.63;;;4.27;69.83
72892;BME280;61032;50.782;6.818;2023-04-26T03:46:42;100776.38;;;4.18;70.46
72892;BME280;61032;50.782;6.818;2023-04-26T03:47:42;100773.47;;;4.09;70.77
72892;BME280;61032;50.782;6.818;2023-04-26T03:48:42;100770.75;;;4.04;71.39
72892;BME280;61032;50.782;6.818;2023-04-26T03:49:43;100771.28;;;4.11;71.35
72892;BME280;61032;50.782;6.818;2023-04-26T03:50:44;100772.28;;;4.21;70.92
72892;BME280;61032;50.782;6.818;2023-04-26T03:51:44;100780.50;;;4.16;71.19
72892;BME280;61032;50.782;6.818;2023-04-26T03:52:45;100769.38;;;4.12;71.16
72892;BME280;61032;50.782;6.818;2023-04-26T03:53:46;100779.69;;;4.15;71.61
72892;BME280;61032;50.782;6.818;2023-04-26T03:54:47;100780.53;;;4.10;70.97
72892;BME280;61032;50.782;6.818;2023-04-26T03:55:48;100784.34;;;4.04;70.69
72892;BME280;61032;50.782;6.818;2023-04-26T03:56:48;100780.78;;;4.14;71.07
72892;BME280;61032;50.782;6.818;2023-04-26T03:57:48;100784.59;;;4.13;70.26
72892;BME280;61032;50.782;6.818;2023-04-26T03:58:49;100788.13;;;4.13;70.08
72892;BME280;61032;50.782;6.818;2023-04-26T03:59:49;100783.78;;;4.12;69.65
72892;BME280;61032;50.782;6.818;2023-04-26T04:00:49;100778.34;;;4.12;69.53
72892;BME280;61032;50.782;6.818;2023-04-26T04:01:50;100783.50;;;4.14;69.98
72892;BME280;61032;50.782;6.818;2023-04-26T04:02:50;100788.69;;;4.10;70.39
72892;BME280;61032;50.782;6.818;2023-04-26T04:03:50;100782.97;;;4.12;70.99
72892;BME280;61032;50.782;6.818;2023-04-26T04:04:51;100784.88;;;4.11;70.11
72892;BME280;61032;50.782;6.818;2023-04-26T04:05:51;100782.19;;;4.06;70.29
72892;BME280;61032;50.782;6.818;2023-04-26T04:06:51;100790.88;;;4.08;71.00
72892;BME280;61032;50.782;6.818;2023-04-26T04:07:52;100790.88;;;4.03;71.29
72892;BME280;61032;50.782;6.818;2023-04-26T04:08:52;100783.53;;;4.04;70.58
72892;BME280;61032;50.782;6.818;2023-04-26T04:09:53;100782.72;;;4.03;71.46
72892;BME280;61032;50.782;6.818;2023-04-26T04:10:53;100778.91;;;4.04;71.44
72892;BME280;61032;50.782;6.818;2023-04-26T04:11:53;100785.72;;;4.07;70.99
72892;BME280;61032;50.782;6.818;2023-04-26T04:12:54;100783.00;;;4.07;71.03
72892;BME280;61032;50.782;6.818;2023-04-26T04:13:54;100789.50;;;4.11;70.67
72892;BME280;61032;50.782;6.818;2023-04-26T04:14:54;100782.97;;;4.12;70.00
72892;BME280;61032;50.782;6.818;2023-04-26T04:15:55;100778.88;;;4.14;70.05
72892;BME280;61032;50.782;6.818;2023-04-26T04:16:55;100779.97;;;4.13;70.07
72892;BME280;61032;50.782;6.818;2023-04-26T04:17:55;100787.81;;;4.20;70.14
72892;BME280;61032;50.782;6.818;2023-04-26T04:18:56;100782.63;;;4.19;70.15
72892;BME280;61032;50.782;6.818;2023-04-26T04:19:56;100790.53;;;4.20;70.44
72892;BME280;61032;50.782;6.818;2023-04-26T04:20:56;100793.25;;;4.20;70.51
72892;BME280;61032;50.782;6.818;2023-04-26T04:21:57;100794.88;;;4.21;70.21
72892;BME280;61032;50.782;6.818;2023-04-26T04:22:57;100793.25;;;4.20;70.86
72892;BME280;61032;50.782;6.818;2023-04-26T04:24:03;100801.47;;;4.15;70.79
72892;BME280;61032;50.782;6.818;2023-04-26T04:25:05;100795.53;;;3.98;71.65
72892;BME280;61032;50.782;6.818;2023-04-26T04:26:06;100794.44;;;4.04;71.73
72892;BME280;61032;50.782;6.818;2023-04-26T04:27:06;100795.78;;;4.06;71.07
72892;BME280;61032;50.782;6.818;2023-04-26T04:28:06;100791.41;;;4.10;70.99
72892;BME280;61032;50.782;6.818;2023-04-26T04:29:07;100792.97;;;4.22;70.67
72892;BME280;61032;50.782;6.818;2023-04-26T04:30:08;100791.56;;;4.29;70.30
72892;BME280;61032;50.782;6.818;2023-04-26T04:31:08;100793.47;;;4.29;70.99
72892;BME280;61032;50.782;6.818;2023-04-26T04:32:09;100797.00;;;4.34;70.29
72892;BME280;61032;50.782;6.818;2023-04-26T04:33:10;100790.47;;;4.30;69.70
72892;BME280;61032;50.782;6.818;2023-04-26T04:34:11;100795.13;;;4.25;70.12
72892;BME280;61032;50.782;6.818;2023-04-26T04:35:11;100794.50;;;4.38;70.42
72892;BME280;61032;50.782;6.818;2023-04-26T04:36:12;100796.41;;;4.37;70.24
72892;BME280;61032;50.782;6.818;2023-04-26T04:37:16;100792.00;;;4.46;70.15
72892;BME280;61032;50.782;6.818;2023-04-26T04:38:17;100799.06;;;4.53;70.32
72892;BME280;61032;50.782;6.818;2023-04-26T04:39:17;100793.56;;;4.58;69.54
72892;BME280;61032;50.782;6.818;2023-04-26T04:40:18;100793.78;;;4.66;69.98
72892;BME280;61032;50.782;6.818;2023-04-26T04:41:18;100795.41;;;4.67;69.26
72892;BME280;61032;50.782;6.818;2023-04-26T04:42:21;100806.38;;;4.57;69.40
72892;BME280;61032;50.782;6.818;2023-04-26T04:43:22;100804.28;;;4.44;69.65
72892;BME280;61032;50.782;6.818;2023-04-26T04:44:23;100807.28;;;4.37;71.12
72892;BME280;61032;50.782;6.818;2023-04-26T04:45:23;100801.00;;;4.42;70.39
72892;BME280;61032;50.782;6.818;2023-04-26T04:46:23;100799.91;;;4.43;70.19
72892;BME280;61032;50.782;6.818;2023-04-26T04:47:24;100808.06;;;4.48;69.79
72892;BME280;61032;50.782;6.818;2023-04-26T04:48:24;100807.25;;;4.47;69.77
72892;BME280;61032;50.782;6.818;2023-04-26T04:49:25;100809.09;;;4.57;69.66
72892;BME280;61032;50.782;6.818;2023-04-26T04:50:25;100805.75;;;4.65;69.64
72892;BME280;61032;50.782;6.818;2023-04-26T04:51:25;100812.28;;;4.69;69.11
72892;BME280;61032;50.782;6.818;2023-04-26T04:52:27;100800.84;;;4.67;68.58
72892;BME280;61032;50.782;6.818;2023-04-26T04:53:27;100804.69;;;4.61;69.67
72892;BME280;61032;50.782;6.818;2023-04-26T04:54:27;100806.25;;;4.72;69.95
72892;BME280;61032;50.782;6.818;2023-04-26T04:55:28;100805.16;;;4.73;68.77
72892;BME280;61032;50.782;6.818;2023-04-26T04:56:28;100813.59;;;4.77;69.16
72892;BME280;61032;50.782;6.818;2023-04-26T04:57:29;100806.72;;;4.79;67.93
72892;BME280;61032;50.782;6.818;2023-04-26T04:58:29;100817.06;;;4.82;68.82
72892;BME280;61032;50.782;6.818;2023-04-26T04:59:29;100812.69;;;4.87;68.46
72892;BME280;61032;50.782;6.818;2023-04-26T05:00:30;100813.25;;;4.83;68.70
72892;BME280;61032;50.782;6.818;2023-04-26T05:01:31;100815.94;;;4.89;68.54
72892;BME280;61032;50.782;6.818;2023-04-26T05:02:35;100812.13;;;4.90;67.90
72892;BME280;61032;50.782;6.818;2023-04-26T05:03:36;100819.72;;;4.93;68.52
72892;BME280;61032;50.782;6.818;2023-04-26T05:04:36;100818.59;;;4.99;68.45
72892;BME280;61032;50.782;6.818;2023-04-26T05:05:37;100818.81;;;5.02;68.27
72892;BME280;61032;50.782;6.818;2023-04-26T05:06:37;100820.72;;;5.02;67.90
72892;BME280;61032;50.782;6.818;2023-04-26T05:07:37;100811.81;;;4.96;67.75
72892;BME280;61032;50.782;6.818;2023-04-26T05:08:38;100813.16;;;4.99;68.47
72892;BME280;61032;50.782;6.818;2023-04-26T05:09:38;100818.53;;;5.04;67.80
72892;BME280;61032;50.782;6.818;2023-04-26T05:10:38;100827.63;;;4.94;67.57
72892;BME280;61032;50.782;6.818;2023-04-26T05:11:38;100824.03;;;4.99;68.44
72892;BME280;61032;50.782;6.818;2023-04-26T05:12:39;100819.06;;;5.06;68.30
72892;BME280;61032;50.782;6.818;2023-04-26T05:13:39;100821.78;;;5.06;68.27
72892;BME280;61032;50.782;6.818;2023-04-26T05:14:39;100829.19;;;5.00;68.60
72892;BME280;61032;50.782;6.818;2023-04-26T05:15:40;100822.28;;;5.13;67.95
72892;BME280;61032;50.782;6.818;2023-04-26T05:16:40;100821.16;;;5.19;68.60
72892;BME280;61032;50.782;6.818;2023-04-26T05:17:41;100828.41;;;5.29;68.29
72892;BME280;61032;50.782;6.818;2023-04-26T05:18:41;100825.38;;;5.30;67.77
72892;BME280;61032;50.782;6.818;2023-04-26T05:19:42;100823.91;;;5.14;68.23
72892;BME280;61032;50.782;6.818;2023-04-26T05:20:42;100824.75;;;5.09;69.69